createdAt,value
2022-08-04T00:01:21.557Z,101095.75
2022-08-04T00:04:33.429Z,101103.25
2022-08-04T00:07:42.555Z,101096.41
2022-08-04T00:10:51.072Z,101097.09
2022-08-04T00:14:02.743Z,101098.84
2022-08-04T00:17:07.937Z,101100.00
2022-08-04T00:20:18.016Z,101091.72
2022-08-04T00:23:20.656Z,101095.16
2022-08-04T00:26:23.368Z,101092.28
2022-08-04T00:29:29.542Z,101089.28
2022-08-04T00:32:34.450Z,101102.56
2022-08-04T00:35:39.570Z,101099.09
2022-08-04T00:38:42.422Z,101093.13
2022-08-04T00:41:58.414Z,101088.97
2022-08-04T00:45:31.061Z,101103.28
2022-08-04T00:49:15.666Z,101098.00
2022-08-04T00:52:37.377Z,101091.09
2022-08-04T00:56:05.146Z,101093.44
2022-08-04T00:59:21.571Z,101091.34
2022-08-04T01:02:32.777Z,101086.53
2022-08-04T01:05:46.270Z,101089.00
2022-08-04T01:09:21.665Z,101083.13
2022-08-04T01:12:42.758Z,101083.84
2022-08-04T01:16:00.568Z,101074.25
2022-08-04T01:19:07.112Z,101070.66
2022-08-04T01:22:30.284Z,101071.00
2022-08-04T01:26:02.394Z,101072.94
2022-08-04T01:29:22.668Z,101071.31
2022-08-04T01:32:32.713Z,101063.53
2022-08-04T01:35:46.745Z,101059.19
2022-08-04T01:38:49.986Z,101065.41
2022-08-04T01:41:58.332Z,101062.63
2022-08-04T01:45:05.874Z,101061.81
2022-08-04T01:48:09.214Z,101063.16
2022-08-04T01:51:11.870Z,101053.41
2022-08-04T01:54:18.678Z,101061.78
2022-08-04T01:57:46.104Z,101057.44
2022-08-04T02:00:56.707Z,101052.19
2022-08-04T02:04:20.674Z,101047.53
2022-08-04T02:07:33.562Z,101052.19
2022-08-04T02:10:50.294Z,101046.34
2022-08-04T02:13:59.293Z,101042.69
2022-08-04T02:17:06.133Z,101050.41
2022-08-04T02:20:13.207Z,101051.75
2022-08-04T02:23:20.811Z,101052.34
2022-08-04T02:26:27.023Z,101046.53
2022-08-04T02:29:40.518Z,101048.59
2022-08-04T02:32:47.872Z,101044.50
2022-08-04T02:35:57.540Z,101038.75
2022-08-04T02:39:01.987Z,101037.84
2022-08-04T02:42:06.281Z,101036.41
2022-08-04T02:45:13.377Z,101039.31
2022-08-04T02:48:30.208Z,101032.16
2022-08-04T02:51:37.050Z,101031.81
2022-08-04T02:54:42.551Z,101029.16
2022-08-04T02:57:49.722Z,101033.78
2022-08-04T03:00:52.969Z,101028.91
2022-08-04T03:04:25.041Z,101032.84
2022-08-04T03:07:58.848Z,101026.13
2022-08-04T03:11:24.937Z,101027.22
2022-08-04T03:15:04.777Z,101029.56
2022-08-04T03:18:45.246Z,101027.34
2022-08-04T03:22:19.064Z,101033.09
2022-08-04T03:26:04.866Z,101040.47
2022-08-04T03:29:36.456Z,101034.56
2022-08-04T03:33:38.040Z,101038.28
2022-08-04T03:37:14.271Z,101032.38
2022-08-04T03:40:35.684Z,101038.28
2022-08-04T03:44:23.486Z,101034.09
2022-08-04T03:47:53.925Z,101032.88
2022-08-04T03:51:51.570Z,101038.00
2022-08-04T03:55:31.754Z,101031.41
2022-08-04T03:58:49.653Z,101027.09
2022-08-04T04:02:13.680Z,101037.50
2022-08-04T04:06:00.071Z,101026.50
2022-08-04T04:09:30.786Z,101024.78
2022-08-04T04:13:24.956Z,101029.69
2022-08-04T04:16:42.976Z,101031.16
2022-08-04T04:20:00.761Z,101036.28
2022-08-04T04:23:18.523Z,101024.06
2022-08-04T04:26:38.729Z,101020.38
2022-08-04T04:30:07.121Z,101024.41
2022-08-04T04:33:27.394Z,101021.56
2022-08-04T04:36:37.793Z,101019.47
2022-08-04T04:39:49.137Z,101019.50
2022-08-04T04:43:51.526Z,101023.50
2022-08-04T04:47:00.682Z,101020.06
2022-08-04T04:50:10.729Z,101020.94
2022-08-04T04:53:23.202Z,101014.19
2022-08-04T04:56:30.157Z,101021.59
2022-08-04T04:59:35.914Z,101013.34
2022-08-04T05:03:01.628Z,101009.16
2022-08-04T05:06:29.369Z,101013.34
2022-08-04T05:09:46.209Z,101006.94
2022-08-04T05:14:36.504Z,101007.28
2022-08-04T05:16:33.170Z,101011.91
2022-08-04T05:19:47.229Z,101004.28
2022-08-04T05:22:58.035Z,101008.53
2022-08-04T05:26:07.458Z,101006.63
2022-08-04T05:29:14.570Z,101001.16
2022-08-04T05:32:24.098Z,100999.41
2022-08-04T05:35:53.963Z,101001.06
2022-08-04T05:38:59.812Z,100987.69
2022-08-04T05:42:07.373Z,100992.28
2022-08-04T05:45:10.993Z,100991.97
2022-08-04T05:48:13.963Z,100993.47
2022-08-04T05:51:18.838Z,100992.50
2022-08-04T05:54:23.026Z,100988.88
2022-08-04T05:57:26.543Z,100986.91
2022-08-04T06:00:40.924Z,100984.38
2022-08-04T06:03:47.290Z,100990.09
2022-08-04T06:06:51.724Z,100991.25
2022-08-04T06:09:54.566Z,100994.69
2022-08-04T06:13:02.450Z,100983.47
2022-08-04T06:16:07.626Z,100983.88
2022-08-04T06:20:02.596Z,100986.69
2022-08-04T06:22:40.724Z,100980.00
2022-08-04T06:25:47.708Z,100984.66
2022-08-04T06:28:52.198Z,100978.78
2022-08-04T06:32:28.939Z,100980.22
2022-08-04T06:35:22.895Z,100971.47
2022-08-04T06:38:29.126Z,100977.28
2022-08-04T06:41:32.493Z,100978.19
2022-08-04T06:44:36.327Z,100972.56
2022-08-04T06:47:40.636Z,100969.38
2022-08-04T06:51:26.687Z,100969.16
2022-08-04T06:54:12.375Z,100969.34
2022-08-04T06:57:17.708Z,100967.84
2022-08-04T07:00:20.469Z,100962.81
2022-08-04T07:03:23.727Z,100963.94
2022-08-04T07:06:26.456Z,100964.28
2022-08-04T07:09:31.958Z,100961.66
2022-08-04T07:12:35.384Z,100955.63
2022-08-04T07:15:42.341Z,100958.28
2022-08-04T07:18:45.175Z,100963.31
2022-08-04T07:22:18.109Z,100972.06
2022-08-04T07:25:13.154Z,100953.06
2022-08-04T07:28:15.826Z,100955.31
2022-08-04T07:31:34.352Z,100954.13
2022-08-04T07:34:39.342Z,100954.16
2022-08-04T07:37:42.178Z,100943.75
2022-08-04T07:40:47.679Z,100945.94
2022-08-04T07:43:51.026Z,100947.97
2022-08-04T07:46:54.034Z,100945.50
2022-08-04T07:49:58.141Z,100943.50
2022-08-04T07:53:52.571Z,100942.72
2022-08-04T07:56:26.807Z,100943.47
2022-08-04T07:59:29.765Z,100935.97
2022-08-04T08:02:34.763Z,100936.13
2022-08-04T08:06:16.862Z,100929.78
2022-08-04T08:09:00.950Z,100931.69
2022-08-04T08:12:38.044Z,100928.00
2022-08-04T08:15:40.521Z,100927.06
2022-08-04T08:18:48.144Z,100922.53
2022-08-04T08:21:59.489Z,100923.38
2022-08-04T08:25:03.017Z,100923.34
2022-08-04T08:28:07.925Z,100919.66
2022-08-04T08:31:10.592Z,100918.16
2022-08-04T08:34:14.515Z,100915.84
2022-08-04T08:37:41.929Z,100914.16
2022-08-04T08:40:51.755Z,100910.28
2022-08-04T08:44:19.068Z,100898.34
2022-08-04T08:48:06.321Z,100897.13
2022-08-04T08:51:32.463Z,100896.94
2022-08-04T08:54:48.438Z,100902.84
2022-08-04T08:58:04.199Z,100896.56
2022-08-04T09:01:17.239Z,100892.72
2022-08-04T09:05:01.735Z,100901.06
2022-08-04T09:08:20.384Z,100901.09
2022-08-04T09:11:26.053Z,100894.75
2022-08-04T09:14:36.405Z,100891.22
2022-08-04T09:17:44.103Z,100890.97
2022-08-04T09:20:50.361Z,100890.16
2022-08-04T09:24:04.401Z,100892.50
2022-08-04T09:27:35.770Z,100884.84
2022-08-04T09:30:44.319Z,100890.75
2022-08-04T09:33:59.888Z,100891.41
2022-08-04T09:37:13.212Z,100877.72
2022-08-04T09:40:31.704Z,100879.72
2022-08-04T09:43:59.488Z,100881.22
2022-08-04T09:47:25.835Z,100880.84
2022-08-04T09:50:49.765Z,100883.84
2022-08-04T09:54:02.633Z,100883.63
2022-08-04T09:57:14.907Z,100878.97
2022-08-04T10:00:20.680Z,100874.38
2022-08-04T10:03:46.488Z,100865.00
2022-08-04T10:07:10.750Z,100861.00
2022-08-04T10:10:22.373Z,100852.03
2022-08-04T10:13:40.357Z,100857.34
2022-08-04T10:16:54.396Z,100841.72
2022-08-04T10:20:05.247Z,100845.41
2022-08-04T10:23:16.746Z,100844.75
2022-08-04T10:26:31.978Z,100835.31
2022-08-04T10:29:42.184Z,100829.06
2022-08-04T10:32:50.741Z,100832.22
2022-08-04T10:36:01.252Z,100828.59
2022-08-04T10:39:42.195Z,100822.19
2022-08-04T10:42:38.303Z,100834.53
2022-08-04T10:45:45.277Z,100825.25
2022-08-04T10:48:55.120Z,100829.59
2022-08-04T10:52:04.535Z,100817.41
2022-08-04T10:55:14.117Z,100814.34
2022-08-04T10:58:47.650Z,100805.63
2022-08-04T11:02:02.796Z,100806.34
2022-08-04T11:05:13.691Z,100804.53
2022-08-04T11:08:21.627Z,100805.16
2022-08-04T11:11:32.676Z,100793.19
2022-08-04T11:15:00.514Z,100796.41
2022-08-04T11:18:16.129Z,100786.50
2022-08-04T11:21:22.742Z,100788.72
2022-08-04T11:24:33.946Z,100772.31
2022-08-04T11:27:45.608Z,100778.91
2022-08-04T11:30:53.581Z,100765.66
2022-08-04T11:34:04.285Z,100775.53
2022-08-04T11:37:21.284Z,100772.44
2022-08-04T11:40:28.808Z,100770.81
2022-08-04T11:44:01.234Z,100772.84
2022-08-04T11:47:12.767Z,100773.47
2022-08-04T11:50:21.957Z,100771.25
2022-08-04T11:53:29.117Z,100768.22
2022-08-04T11:56:39.546Z,100769.81
2022-08-04T11:59:44.936Z,100767.31
2022-08-04T12:03:08.511Z,100769.28
2022-08-04T12:06:18.627Z,100762.19
2022-08-04T12:09:33.123Z,100763.78
2022-08-04T12:12:40.332Z,100759.78
2022-08-04T12:15:58.713Z,100756.06
2022-08-04T12:19:06.638Z,100744.88
2022-08-04T12:22:15.379Z,100749.38
2022-08-04T12:25:23.831Z,100755.72
2022-08-04T12:28:52.462Z,100742.53
2022-08-04T12:32:01.289Z,100739.03
2022-08-04T12:35:11.678Z,100730.69
2022-08-04T12:38:15.423Z,100718.31
2022-08-04T12:41:24.746Z,100721.97
2022-08-04T12:44:37.397Z,100711.97
2022-08-04T12:47:43.670Z,100716.78
2022-08-04T12:50:49.773Z,100717.09
2022-08-04T12:53:52.670Z,100714.03
2022-08-04T12:57:00.054Z,100705.66
2022-08-04T13:00:02.962Z,100697.97
2022-08-04T13:03:10.865Z,100701.34
2022-08-04T13:06:21.292Z,100695.50
2022-08-04T13:09:31.839Z,100686.84
2022-08-04T13:12:35.809Z,100680.91
2022-08-04T13:15:47.134Z,100686.06
2022-08-04T13:19:05.269Z,100687.66
2022-08-04T13:22:08.262Z,100685.16
2022-08-04T13:26:41.653Z,100689.94
2022-08-04T13:28:35.381Z,100685.78
2022-08-04T13:31:38.952Z,100675.25
2022-08-04T13:34:49.197Z,100675.44
2022-08-04T13:37:57.522Z,100685.53
2022-08-04T13:41:03.498Z,100680.09
2022-08-04T13:44:18.604Z,100677.69
2022-08-04T13:47:28.040Z,100669.75
2022-08-04T13:50:35.175Z,100668.06
2022-08-04T13:53:39.525Z,100664.09
2022-08-04T13:56:49.407Z,100657.97
2022-08-04T13:59:54.347Z,100654.34
2022-08-04T14:03:02.029Z,100645.31
2022-08-04T14:06:22.397Z,100648.50
2022-08-04T14:09:35.349Z,100636.59
2022-08-04T14:12:47.104Z,100636.38
2022-08-04T14:16:01.021Z,100634.19
2022-08-04T14:19:05.789Z,100616.75
2022-08-04T14:22:34.154Z,100607.06
2022-08-04T14:25:36.775Z,100610.28
2022-08-04T14:29:09.746Z,100606.88
2022-08-04T14:32:04.255Z,100612.44
2022-08-04T14:35:12.402Z,100617.94
2022-08-04T14:38:16.410Z,100622.75
2022-08-04T14:41:20.899Z,100627.28
2022-08-04T14:44:24.800Z,100615.38
2022-08-04T14:47:41.561Z,100621.66
2022-08-04T14:50:55.537Z,100629.13
2022-08-04T14:54:01.795Z,100611.81
2022-08-04T14:57:08.605Z,100619.09
2022-08-04T15:00:15.851Z,100621.97
2022-08-04T15:03:22.327Z,100618.94
2022-08-04T15:06:27.456Z,100624.34
2022-08-04T15:09:32.121Z,100630.91
2022-08-04T15:12:34.962Z,100636.72
2022-08-04T15:15:37.714Z,100633.66
2022-08-04T15:18:41.485Z,100626.78
2022-08-04T15:21:44.628Z,100623.88
2022-08-04T15:24:54.874Z,100627.06
2022-08-04T15:27:58.770Z,100657.06
2022-08-04T15:31:04.548Z,100671.13
2022-08-04T15:34:14.596Z,100688.56
2022-08-04T15:37:26.379Z,100694.97
2022-08-04T15:40:36.762Z,100700.00
2022-08-04T15:43:56.066Z,100693.19
2022-08-04T15:47:13.885Z,100691.00
2022-08-04T15:50:27.842Z,100687.28
2022-08-04T15:54:01.374Z,100736.78
2022-08-04T15:57:02.603Z,100882.91
2022-08-04T16:00:12.766Z,100948.59
2022-08-04T16:03:58.080Z,101089.47
2022-08-04T16:07:06.382Z,101018.13
2022-08-04T16:10:39.472Z,101029.50
2022-08-04T16:14:08.939Z,100996.41
2022-08-04T16:17:19.097Z,100979.31
2022-08-04T16:20:23.810Z,100931.72
2022-08-04T16:23:55.017Z,100857.03
2022-08-04T16:27:01.267Z,100849.00
2022-08-04T16:30:13.615Z,100791.97
2022-08-04T16:33:16.841Z,100734.81
2022-08-04T16:36:57.757Z,100697.88
2022-08-04T16:40:34.712Z,100696.72
2022-08-04T16:43:38.771Z,100718.63
2022-08-04T16:47:08.538Z,100736.56
2022-08-04T16:50:06.334Z,100773.44
2022-08-04T16:53:14.640Z,100774.56
2022-08-04T16:56:36.268Z,100787.25
2022-08-04T16:59:39.008Z,100803.19
2022-08-04T17:02:45.132Z,100815.94
2022-08-04T17:05:48.191Z,100817.22
2022-08-04T17:08:51.091Z,100817.84
2022-08-04T17:11:54.068Z,100826.94
2022-08-04T17:14:58.413Z,100808.66
2022-08-04T17:18:20.721Z,100800.06
2022-08-04T17:21:25.716Z,100790.38
2022-08-04T17:24:28.378Z,100776.19
2022-08-04T17:28:19.822Z,100771.38
2022-08-04T17:30:55.729Z,100790.84
2022-08-04T17:34:15.593Z,100798.13
2022-08-04T17:37:52.889Z,100792.25
2022-08-04T17:40:59.793Z,100777.69
2022-08-04T17:44:22.306Z,100788.38
2022-08-04T17:47:25.694Z,100784.84
2022-08-04T17:50:43.334Z,100800.16
2022-08-04T17:54:02.293Z,100798.56
2022-08-04T17:57:15.945Z,100793.66
2022-08-04T18:00:22.995Z,100795.13
2022-08-04T18:03:29.119Z,100801.69
2022-08-04T18:06:34.182Z,100803.44
2022-08-04T18:09:57.863Z,100806.19
2022-08-04T18:13:07.816Z,100814.69
2022-08-04T18:16:22.181Z,100834.78
2022-08-04T18:19:25.677Z,100838.63
2022-08-04T18:22:35.592Z,100852.22
2022-08-04T18:25:51.701Z,100852.50
2022-08-04T18:28:55.250Z,100865.25
2022-08-04T18:31:58.159Z,100865.97
2022-08-04T18:35:04.965Z,100875.66
2022-08-04T18:38:22.193Z,100878.94
2022-08-04T18:41:26.829Z,100881.16
2022-08-04T18:44:30.993Z,100890.56
2022-08-04T18:47:54.333Z,100894.28
2022-08-04T18:51:09.318Z,100893.69
2022-08-04T18:54:15.537Z,100887.16
2022-08-04T18:57:32.811Z,100888.78
2022-08-04T19:00:45.770Z,100889.88
2022-08-04T19:03:53.909Z,100893.91
2022-08-04T19:07:23.341Z,100903.16
2022-08-04T19:10:26.802Z,100907.41
2022-08-04T19:13:34.651Z,100912.56
2022-08-04T19:16:38.030Z,100896.59
2022-08-04T19:19:49.392Z,100907.47
2022-08-04T19:24:27.717Z,100916.13
2022-08-04T19:26:27.983Z,100932.13
2022-08-04T19:29:37.572Z,100930.56
2022-08-04T19:32:41.099Z,100943.66
2022-08-04T19:35:50.838Z,100943.38
2022-08-04T19:38:53.604Z,100953.06
2022-08-04T19:42:05.194Z,100953.19
2022-08-04T19:45:15.864Z,100953.34
2022-08-04T19:48:22.093Z,100963.88
2022-08-04T19:51:27.817Z,100976.44
2022-08-04T19:54:30.631Z,100971.28
2022-08-04T19:57:35.526Z,100975.59
2022-08-04T20:00:40.599Z,100984.28
2022-08-04T20:04:10.558Z,100973.25
2022-08-04T20:07:14.319Z,100968.13
2022-08-04T20:10:17.764Z,100966.28
2022-08-04T20:13:37.427Z,100966.28
2022-08-04T20:16:41.354Z,100983.56
2022-08-04T20:19:51.446Z,100983.25
2022-08-04T20:22:54.338Z,100989.63
2022-08-04T20:25:56.973Z,100996.91
2022-08-04T20:29:01.062Z,100984.09
2022-08-04T20:32:05.627Z,100991.50
2022-08-04T20:35:15.841Z,100987.09
2022-08-04T20:38:33.239Z,100982.59
2022-08-04T20:41:37.131Z,100980.03
2022-08-04T20:44:42.277Z,100988.91
2022-08-04T20:47:54.094Z,100986.75
2022-08-04T20:50:57.589Z,100992.31
2022-08-04T20:54:00.234Z,100989.38
2022-08-04T20:57:03.535Z,101002.53
2022-08-04T21:00:09.873Z,100991.06
2022-08-04T21:03:15.753Z,100979.81
2022-08-04T21:06:18.357Z,100992.16
2022-08-04T21:09:37.303Z,100998.38
2022-08-04T21:12:40.381Z,100995.66
2022-08-04T21:15:58.468Z,100998.69
2022-08-04T21:19:04.160Z,101002.66
2022-08-04T21:22:10.510Z,100988.81
2022-08-04T21:25:16.269Z,100994.31
2022-08-04T21:28:20.019Z,100990.56
2022-08-04T21:31:24.563Z,100996.84
2022-08-04T21:34:38.064Z,100996.28
2022-08-04T21:37:58.126Z,100992.88
2022-08-04T21:41:03.867Z,100987.69
2022-08-04T21:44:09.489Z,100978.00
2022-08-04T21:47:23.270Z,100980.00
2022-08-04T21:50:26.194Z,100988.41
2022-08-04T21:53:33.422Z,100990.78
2022-08-04T21:56:38.022Z,100997.38
2022-08-04T21:59:45.037Z,100983.56
2022-08-04T22:02:53.214Z,100986.09
2022-08-04T22:05:56.417Z,100980.16
2022-08-04T22:08:59.055Z,100986.41
2022-08-04T22:12:03.241Z,100979.78
2022-08-04T22:15:22.776Z,100979.09
2022-08-04T22:18:49.586Z,100998.00
2022-08-04T22:21:56.561Z,101014.63
2022-08-04T22:25:06.228Z,101004.38
2022-08-04T22:28:15.753Z,101011.56
2022-08-04T22:31:24.763Z,101008.09
2022-08-04T22:34:30.406Z,101004.44
2022-08-04T22:37:35.953Z,101011.34
2022-08-04T22:40:47.623Z,101002.78
2022-08-04T22:43:54.771Z,101015.44
2022-08-04T22:46:57.806Z,101024.19
2022-08-04T22:50:28.485Z,101022.53
2022-08-04T22:53:26.199Z,101026.81
2022-08-04T22:56:37.728Z,101037.38
2022-08-04T22:59:43.326Z,101045.94
2022-08-04T23:02:46.150Z,101048.91
2022-08-04T23:05:52.425Z,101039.56
2022-08-04T23:08:55.152Z,101029.19
2022-08-04T23:12:15.248Z,101027.59
2022-08-04T23:15:20.599Z,101024.28
2022-08-04T23:18:23.935Z,101024.75
2022-08-04T23:21:40.906Z,101022.25
2022-08-04T23:24:43.877Z,101014.53
2022-08-04T23:27:52.296Z,101010.53
2022-08-04T23:30:56.021Z,101014.69
2022-08-04T23:33:59.288Z,101013.50
2022-08-04T23:37:03.286Z,101014.94
2022-08-04T23:40:30.545Z,101020.06
2022-08-04T23:43:38.742Z,101045.59
2022-08-04T23:46:53.327Z,101047.56
2022-08-04T23:49:58.231Z,101057.50
2022-08-04T23:53:02.209Z,101052.25
2022-08-04T23:56:07.895Z,101046.44
2022-08-04T23:59:17.927Z,101040.59
